Loretto, Minnesota
Current Conditions -  °F | °C
As of 3:35 AM on Thursday 27 Nov 2014 (Local Time) from KCFE Reporting Station
Clear Clear  
Wind Chill: -14°   Ceiling: Unl
Heat Index:   Visibility: 10mi
Dew Point: -5°   Wind: 8mph
Humidity: 77%   Direction: 320°NW
Pressure: 30.49"   Gusts: NA
Location:  45.06°N, 93.64°W
Report Text: KCFE 270935Z AUTO 32007KT 10SM CLR M18/M21 A3049 RMK AO2 T11771208
Loading
Personal Weather Stations






























Interactive Weather Map New forecast layout! Learn more

10-Day Weather Forecast

Advertisements
Track Severe Weather on mobile